sensor_id;sensor_type;location;lat;lon;timestamp;pressure;altitude;pressure_sealevel;temperature;humidity
9235;BME280;4652;42.716;23.218;2022-10-16T00:03:46;95517.16;;;5.59;100.00
9235;BME280;4652;42.716;23.218;2022-10-16T00:10:30;95522.50;;;5.59;100.00
9235;BME280;4652;42.716;23.218;2022-10-16T00:17:12;95522.84;;;5.62;100.00
9235;BME280;4652;42.716;23.218;2022-10-16T00:23:55;95527.38;;;5.62;100.00
9235;BME280;4652;42.716;23.218;2022-10-16T00:30:39;95515.00;;;5.44;100.00
9235;BME280;4652;42.716;23.218;2022-10-16T00:37:22;95544.72;;;5.48;100.00
9235;BME280;4652;42.716;23.218;2022-10-16T00:44:45;95523.94;;;5.50;100.00
9235;BME280;4652;42.716;23.218;2022-10-16T00:51:30;95485.69;;;5.16;100.00
9235;BME280;4652;42.716;23.218;2022-10-16T00:58:13;95529.56;;;5.37;100.00
9235;BME280;4652;42.716;23.218;2022-10-16T01:04:57;95519.19;;;5.23;100.00
9235;BME280;4652;42.716;23.218;2022-10-16T01:11:45;95542.50;;;5.28;100.00
9235;BME280;4652;42.716;23.218;2022-10-16T01:18:34;95536.50;;;5.21;100.00
9235;BME280;4652;42.716;23.218;2022-10-16T01:25:25;95504.06;;;5.01;100.00
9235;BME280;4652;42.716;23.218;2022-10-16T01:32:17;95521.47;;;5.03;100.00
9235;BME280;4652;42.716;23.218;2022-10-16T01:39:01;95544.19;;;5.06;100.00
9235;BME280;4652;42.716;23.218;2022-10-16T01:45:45;95513.13;;;5.00;100.00
9235;BME280;4652;42.716;23.218;2022-10-16T01:52:29;95544.41;;;5.16;100.00
9235;BME280;4652;42.716;23.218;2022-10-16T01:59:16;95540.25;;;5.08;100.00
9235;BME280;4652;42.716;23.218;2022-10-16T02:06:00;95551.03;;;5.13;100.00
9235;BME280;4652;42.716;23.218;2022-10-16T02:12:47;95555.03;;;4.99;100.00
9235;BME280;4652;42.716;23.218;2022-10-16T02:19:31;95566.16;;;4.96;100.00
9235;BME280;4652;42.716;23.218;2022-10-16T02:26:15;95568.41;;;4.76;100.00
9235;BME280;4652;42.716;23.218;2022-10-16T02:33:06;95562.97;;;4.71;100.00
9235;BME280;4652;42.716;23.218;2022-10-16T02:39:49;95569.69;;;4.62;100.00
9235;BME280;4652;42.716;23.218;2022-10-16T02:46:31;95579.31;;;4.51;100.00
9235;BME280;4652;42.716;23.218;2022-10-16T02:53:14;95586.75;;;4.38;100.00
9235;BME280;4652;42.716;23.218;2022-10-16T02:59:56;95577.34;;;4.24;100.00
9235;BME280;4652;42.716;23.218;2022-10-16T03:06:39;95591.38;;;4.31;100.00
9235;BME280;4652;42.716;23.218;2022-10-16T03:13:22;95581.03;;;4.23;100.00
9235;BME280;4652;42.716;23.218;2022-10-16T03:20:05;95595.91;;;4.30;100.00
9235;BME280;4652;42.716;23.218;2022-10-16T03:26:47;95596.47;;;4.32;100.00
9235;BME280;4652;42.716;23.218;2022-10-16T03:33:31;95605.75;;;4.30;100.00
9235;BME280;4652;42.716;23.218;2022-10-16T03:40:13;95598.78;;;4.17;100.00
9235;BME280;4652;42.716;23.218;2022-10-16T03:46:55;95603.38;;;3.98;100.00
9235;BME280;4652;42.716;23.218;2022-10-16T03:53:39;95574.84;;;3.87;100.00
9235;BME280;4652;42.716;23.218;2022-10-16T04:00:21;95598.50;;;3.95;100.00
9235;BME280;4652;42.716;23.218;2022-10-16T04:07:03;95591.44;;;3.89;100.00
9235;BME280;4652;42.716;23.218;2022-10-16T04:13:47;95590.28;;;3.85;100.00
9235;BME280;4652;42.716;23.218;2022-10-16T04:20:29;95604.06;;;3.94;100.00
9235;BME280;4652;42.716;23.218;2022-10-16T04:27:11;95610.16;;;3.71;100.00
9235;BME280;4652;42.716;23.218;2022-10-16T04:33:55;95608.41;;;3.77;100.00
9235;BME280;4652;42.716;23.218;2022-10-16T04:40:37;95609.13;;;3.72;100.00
9235;BME280;4652;42.716;23.218;2022-10-16T04:47:19;95612.22;;;3.69;100.00
9235;BME280;4652;42.716;23.218;2022-10-16T04:54:02;95626.66;;;3.91;100.00
9235;BME280;4652;42.716;23.218;2022-10-16T05:00:45;95619.94;;;3.89;100.00
9235;BME280;4652;42.716;23.218;2022-10-16T05:07:27;95641.03;;;4.02;100.00
9235;BME280;4652;42.716;23.218;2022-10-16T05:14:11;95653.97;;;5.09;100.00
9235;BME280;4652;42.716;23.218;2022-10-16T05:20:53;95598.78;;;10.00;100.00
9235;BME280;4652;42.716;23.218;2022-10-16T05:27:36;95593.91;;;13.57;72.43
9235;BME280;4652;42.716;23.218;2022-10-16T05:34:20;95583.84;;;16.56;58.15
9235;BME280;4652;42.716;23.218;2022-10-16T05:41:03;95592.81;;;19.48;50.94
9235;BME280;4652;42.716;23.218;2022-10-16T05:47:45;95591.03;;;21.88;46.86
9235;BME280;4652;42.716;23.218;2022-10-16T05:54:29;95598.34;;;23.79;44.12
9235;BME280;4652;42.716;23.218;2022-10-16T06:01:12;95593.72;;;25.57;41.58
9235;BME280;4652;42.716;23.218;2022-10-16T06:07:55;95613.66;;;27.13;39.21
9235;BME280;4652;42.716;23.218;2022-10-16T06:14:38;95621.84;;;28.03;37.94
9235;BME280;4652;42.716;23.218;2022-10-16T06:21:22;95605.59;;;26.49;39.24
9235;BME280;4652;42.716;23.218;2022-10-16T06:28:05;95637.22;;;25.26;41.37
9235;BME280;4652;42.716;23.218;2022-10-16T06:34:49;95639.88;;;23.74;43.23
9235;BME280;4652;42.716;23.218;2022-10-16T06:41:31;95649.63;;;23.87;43.97
9235;BME280;4652;42.716;23.218;2022-10-16T06:48:13;95660.22;;;24.64;43.34
9235;BME280;4652;42.716;23.218;2022-10-16T06:54:57;95664.56;;;26.34;40.13
9235;BME280;4652;42.716;23.218;2022-10-16T07:01:39;95649.50;;;25.66;41.08
9235;BME280;4652;42.716;23.218;2022-10-16T07:08:21;95663.44;;;25.00;41.97
9235;BME280;4652;42.716;23.218;2022-10-16T07:15:06;95671.59;;;25.13;41.53
9235;BME280;4652;42.716;23.218;2022-10-16T07:21:48;95669.97;;;24.77;42.94
9235;BME280;4652;42.716;23.218;2022-10-16T07:28:31;95679.81;;;26.99;39.99
9235;BME280;4652;42.716;23.218;2022-10-16T07:35:14;95676.66;;;26.48;40.05
9235;BME280;4652;42.716;23.218;2022-10-16T07:41:56;95679.91;;;25.70;41.74
9235;BME280;4652;42.716;23.218;2022-10-16T07:48:38;95673.38;;;28.14;38.52
9235;BME280;4652;42.716;23.218;2022-10-16T07:55:22;95683.72;;;26.95;38.94
9235;BME280;4652;42.716;23.218;2022-10-16T08:02:03;95680.16;;;26.71;39.99
9235;BME280;4652;42.716;23.218;2022-10-16T08:08:45;95673.75;;;25.03;41.19
9235;BME280;4652;42.716;23.218;2022-10-16T08:15:29;95668.47;;;20.11;50.28
9235;BME280;4652;42.716;23.218;2022-10-16T08:22:12;95693.72;;;18.75;53.16
9235;BME280;4652;42.716;23.218;2022-10-16T08:28:54;95696.75;;;17.78;55.70
9235;BME280;4652;42.716;23.218;2022-10-16T08:35:38;95686.28;;;16.83;58.56
9235;BME280;4652;42.716;23.218;2022-10-16T08:42:29;95667.34;;;16.15;62.13
9235;BME280;4652;42.716;23.218;2022-10-16T08:49:14;95678.69;;;16.44;59.06
9235;BME280;4652;42.716;23.218;2022-10-16T08:55:58;95688.50;;;17.17;59.30
9235;BME280;4652;42.716;23.218;2022-10-16T09:02:47;95690.13;;;17.04;57.67
9235;BME280;4652;42.716;23.218;2022-10-16T09:09:45;95696.59;;;17.08;57.36
9235;BME280;4652;42.716;23.218;2022-10-16T09:16:32;95664.94;;;16.76;55.53
9235;BME280;4652;42.716;23.218;2022-10-16T09:23:18;95682.78;;;17.27;56.22
9235;BME280;4652;42.716;23.218;2022-10-16T09:30:01;95700.00;;;17.14;55.84
9235;BME280;4652;42.716;23.218;2022-10-16T09:36:45;95695.72;;;17.43;55.64
9235;BME280;4652;42.716;23.218;2022-10-16T09:43:33;95690.06;;;17.53;53.46
9235;BME280;4652;42.716;23.218;2022-10-16T09:50:22;95681.56;;;17.33;55.38
9235;BME280;4652;42.716;23.218;2022-10-16T09:57:12;95657.38;;;17.62;54.14
9235;BME280;4652;42.716;23.218;2022-10-16T10:03:56;95672.34;;;17.51;53.39
9235;BME280;4652;42.716;23.218;2022-10-16T10:10:42;95661.91;;;17.67;53.42
9235;BME280;4652;42.716;23.218;2022-10-16T10:17:27;95629.56;;;17.21;53.74
9235;BME280;4652;42.716;23.218;2022-10-16T10:24:13;95660.00;;;17.45;54.12
9235;BME280;4652;42.716;23.218;2022-10-16T10:31:00;95640.56;;;17.38;53.26
9235;BME280;4652;42.716;23.218;2022-10-16T10:38:00;95644.03;;;17.52;55.20
9235;BME280;4652;42.716;23.218;2022-10-16T10:44:59;95612.50;;;17.59;53.70
9235;BME280;4652;42.716;23.218;2022-10-16T10:51:50;95625.69;;;17.66;54.35
9235;BME280;4652;42.716;23.218;2022-10-16T10:58:52;95619.00;;;17.72;54.38
9235;BME280;4652;42.716;23.218;2022-10-16T11:05:42;95612.59;;;17.77;53.80
9235;BME280;4652;42.716;23.218;2022-10-16T11:12:28;95617.75;;;17.87;53.55
9235;BME280;4652;42.716;23.218;2022-10-16T11:19:22;95610.13;;;17.97;53.56
9235;BME280;4652;42.716;23.218;2022-10-16T11:26:12;95609.63;;;18.04;53.03
9235;BME280;4652;42.716;23.218;2022-10-16T11:33:04;95598.16;;;18.24;51.64
9235;BME280;4652;42.716;23.218;2022-10-16T11:39:58;95599.44;;;18.35;52.31
9235;BME280;4652;42.716;23.218;2022-10-16T11:46:49;95600.53;;;18.26;51.58
9235;BME280;4652;42.716;23.218;2022-10-16T11:53:41;95598.47;;;18.14;51.88
9235;BME280;4652;42.716;23.218;2022-10-16T12:00:28;95594.94;;;18.22;52.22
9235;BME280;4652;42.716;23.218;2022-10-16T12:07:14;95597.03;;;18.42;50.89
9235;BME280;4652;42.716;23.218;2022-10-16T12:14:20;95591.28;;;18.44;50.63
9235;BME280;4652;42.716;23.218;2022-10-16T12:21:05;95587.78;;;18.52;49.90
9235;BME280;4652;42.716;23.218;2022-10-16T12:27:55;95598.69;;;18.52;48.96
9235;BME280;4652;42.716;23.218;2022-10-16T12:34:40;95600.94;;;18.50;48.70
